Terminal Aerodrome Forecast
Issued by NWS

Home | Current Version | Previous Version | Text Only | Print | Product List | Glossary On
Versions: 1 2 3 4 5 6 7 8 9 10 11 12 13 14 15 16 17 18 19 20 21 22 23 24 25 26 27 28 29 30 31
000
FTUS46 KLOX 232300
TAFLAX
TAF
KLAX 232338Z 2400/2506 26011KT P6SM FEW015
     FM240300 25007KT P6SM SKC
     FM240800 VRB03KT P6SM BKN008
     FM241100 VRB03KT 5SM BR OVC005
     FM241500 VRB03KT 4SM BR OVC007
     FM241700 26006KT P6SM SCT010
     FM242000 27010KT P6SM FEW010
     FM242300 26014KT P6SM SKC
     FM250200 25009KT P6SM SKC=

USA.gov is the U.S. government's official web portal to all federal, state and local government web resources and services.